sensor_id;sensor_type;location;lat;lon;timestamp;P1;durP1;ratioP1;P2;durP2;ratioP2
11614;SDS011;5863;52.832;4.758;2023-08-20T00:00:23;8.70;;;2.92;;
11614;SDS011;5863;52.832;4.758;2023-08-20T00:02:51;14.60;;;3.47;;
11614;SDS011;5863;52.832;4.758;2023-08-20T00:05:24;7.43;;;2.60;;
11614;SDS011;5863;52.832;4.758;2023-08-20T00:07:51;9.20;;;2.78;;
11614;SDS011;5863;52.832;4.758;2023-08-20T00:10:19;7.60;;;2.60;;
11614;SDS011;5863;52.832;4.758;2023-08-20T00:12:46;7.30;;;2.70;;
11614;SDS011;5863;52.832;4.758;2023-08-20T00:15:12;6.03;;;2.40;;
11614;SDS011;5863;52.832;4.758;2023-08-20T00:17:39;11.02;;;3.00;;
11614;SDS011;5863;52.832;4.758;2023-08-20T00:20:07;9.90;;;2.40;;
11614;SDS011;5863;52.832;4.758;2023-08-20T00:22:38;7.10;;;2.60;;
11614;SDS011;5863;52.832;4.758;2023-08-20T00:25:07;8.48;;;2.40;;
11614;SDS011;5863;52.832;4.758;2023-08-20T00:27:36;12.35;;;2.67;;
11614;SDS011;5863;52.832;4.758;2023-08-20T00:30:04;10.20;;;2.65;;
11614;SDS011;5863;52.832;4.758;2023-08-20T00:32:32;6.22;;;2.25;;
11614;SDS011;5863;52.832;4.758;2023-08-20T00:34:58;7.22;;;2.40;;
11614;SDS011;5863;52.832;4.758;2023-08-20T00:37:25;9.48;;;3.00;;
11614;SDS011;5863;52.832;4.758;2023-08-20T00:39:52;8.45;;;2.08;;
11614;SDS011;5863;52.832;4.758;2023-08-20T00:42:19;11.02;;;2.80;;
11614;SDS011;5863;52.832;4.758;2023-08-20T00:44:47;7.50;;;2.10;;
11614;SDS011;5863;52.832;4.758;2023-08-20T00:47:13;9.45;;;2.58;;
11614;SDS011;5863;52.832;4.758;2023-08-20T00:49:40;10.18;;;3.03;;
11614;SDS011;5863;52.832;4.758;2023-08-20T00:52:07;9.60;;;3.20;;
11614;SDS011;5863;52.832;4.758;2023-08-20T00:54:35;11.05;;;3.05;;
11614;SDS011;5863;52.832;4.758;2023-08-20T00:57:03;8.63;;;3.10;;
11614;SDS011;5863;52.832;4.758;2023-08-20T00:59:30;9.18;;;2.78;;
11614;SDS011;5863;52.832;4.758;2023-08-20T01:02:00;12.68;;;2.67;;
11614;SDS011;5863;52.832;4.758;2023-08-20T01:04:27;10.25;;;2.97;;
11614;SDS011;5863;52.832;4.758;2023-08-20T01:07:08;9.38;;;2.50;;
11614;SDS011;5863;52.832;4.758;2023-08-20T01:09:48;7.72;;;2.50;;
11614;SDS011;5863;52.832;4.758;2023-08-20T01:12:17;10.05;;;2.67;;
11614;SDS011;5863;52.832;4.758;2023-08-20T01:14:45;10.82;;;2.67;;
11614;SDS011;5863;52.832;4.758;2023-08-20T01:17:13;6.10;;;2.40;;
11614;SDS011;5863;52.832;4.758;2023-08-20T01:19:40;7.22;;;2.65;;
11614;SDS011;5863;52.832;4.758;2023-08-20T01:25:23;8.07;;;2.30;;
11614;SDS011;5863;52.832;4.758;2023-08-20T01:27:58;7.07;;;2.88;;
11614;SDS011;5863;52.832;4.758;2023-08-20T01:30:34;10.63;;;2.95;;
11614;SDS011;5863;52.832;4.758;2023-08-20T01:33:01;11.93;;;2.75;;
11614;SDS011;5863;52.832;4.758;2023-08-20T01:35:28;10.27;;;2.67;;
11614;SDS011;5863;52.832;4.758;2023-08-20T01:37:55;8.13;;;2.65;;
11614;SDS011;5863;52.832;4.758;2023-08-20T01:40:22;10.55;;;2.67;;
11614;SDS011;5863;52.832;4.758;2023-08-20T01:42:48;7.60;;;2.65;;
11614;SDS011;5863;52.832;4.758;2023-08-20T01:45:15;6.70;;;2.47;;
11614;SDS011;5863;52.832;4.758;2023-08-20T01:47:44;11.45;;;2.60;;
11614;SDS011;5863;52.832;4.758;2023-08-20T01:50:11;8.98;;;3.08;;
11614;SDS011;5863;52.832;4.758;2023-08-20T01:52:37;9.40;;;2.38;;
11614;SDS011;5863;52.832;4.758;2023-08-20T01:55:04;9.73;;;2.78;;
11614;SDS011;5863;52.832;4.758;2023-08-20T01:57:32;6.50;;;2.50;;
11614;SDS011;5863;52.832;4.758;2023-08-20T01:59:58;6.82;;;2.50;;
11614;SDS011;5863;52.832;4.758;2023-08-20T02:02:25;7.45;;;2.20;;
11614;SDS011;5863;52.832;4.758;2023-08-20T02:04:53;7.68;;;2.55;;
11614;SDS011;5863;52.832;4.758;2023-08-20T02:07:20;9.63;;;2.30;;
11614;SDS011;5863;52.832;4.758;2023-08-20T02:09:46;9.57;;;2.55;;
11614;SDS011;5863;52.832;4.758;2023-08-20T02:12:13;9.15;;;2.50;;
11614;SDS011;5863;52.832;4.758;2023-08-20T02:14:40;6.85;;;2.30;;
11614;SDS011;5863;52.832;4.758;2023-08-20T02:17:07;8.63;;;2.42;;
11614;SDS011;5863;52.832;4.758;2023-08-20T02:19:34;7.93;;;2.50;;
11614;SDS011;5863;52.832;4.758;2023-08-20T02:22:02;8.15;;;2.75;;
11614;SDS011;5863;52.832;4.758;2023-08-20T02:24:29;7.65;;;2.90;;
11614;SDS011;5863;52.832;4.758;2023-08-20T02:26:56;9.55;;;3.03;;
11614;SDS011;5863;52.832;4.758;2023-08-20T02:29:22;10.30;;;2.72;;
11614;SDS011;5863;52.832;4.758;2023-08-20T02:31:49;8.07;;;2.75;;
11614;SDS011;5863;52.832;4.758;2023-08-20T02:34:16;6.47;;;2.70;;
11614;SDS011;5863;52.832;4.758;2023-08-20T02:36:42;11.05;;;3.03;;
11614;SDS011;5863;52.832;4.758;2023-08-20T02:39:10;10.32;;;3.25;;
11614;SDS011;5863;52.832;4.758;2023-08-20T02:41:37;8.73;;;2.83;;
11614;SDS011;5863;52.832;4.758;2023-08-20T02:44:04;8.27;;;3.13;;
11614;SDS011;5863;52.832;4.758;2023-08-20T02:46:31;9.32;;;2.70;;
11614;SDS011;5863;52.832;4.758;2023-08-20T02:48:57;9.60;;;2.63;;
11614;SDS011;5863;52.832;4.758;2023-08-20T02:51:24;12.20;;;3.08;;
11614;SDS011;5863;52.832;4.758;2023-08-20T02:53:51;9.35;;;2.50;;
11614;SDS011;5863;52.832;4.758;2023-08-20T02:56:19;8.07;;;2.90;;
11614;SDS011;5863;52.832;4.758;2023-08-20T02:58:46;7.28;;;2.70;;
11614;SDS011;5863;52.832;4.758;2023-08-20T03:01:18;6.85;;;2.60;;
11614;SDS011;5863;52.832;4.758;2023-08-20T03:03:46;6.25;;;2.58;;
11614;SDS011;5863;52.832;4.758;2023-08-20T03:06:12;5.00;;;2.67;;
11614;SDS011;5863;52.832;4.758;2023-08-20T03:08:39;6.63;;;2.67;;
11614;SDS011;5863;52.832;4.758;2023-08-20T03:11:06;8.65;;;2.90;;
11614;SDS011;5863;52.832;4.758;2023-08-20T03:13:34;10.30;;;2.80;;
11614;SDS011;5863;52.832;4.758;2023-08-20T03:16:01;9.55;;;2.50;;
11614;SDS011;5863;52.832;4.758;2023-08-20T03:18:28;9.05;;;2.72;;
11614;SDS011;5863;52.832;4.758;2023-08-20T03:20:55;8.82;;;2.72;;
11614;SDS011;5863;52.832;4.758;2023-08-20T03:23:21;9.65;;;2.58;;
11614;SDS011;5863;52.832;4.758;2023-08-20T03:25:48;10.95;;;2.85;;
11614;SDS011;5863;52.832;4.758;2023-08-20T03:28:15;9.27;;;2.75;;
11614;SDS011;5863;52.832;4.758;2023-08-20T03:30:45;7.10;;;2.60;;
11614;SDS011;5863;52.832;4.758;2023-08-20T03:33:12;8.40;;;2.92;;
11614;SDS011;5863;52.832;4.758;2023-08-20T03:35:38;10.77;;;3.20;;
11614;SDS011;5863;52.832;4.758;2023-08-20T03:38:05;9.77;;;3.20;;
11614;SDS011;5863;52.832;4.758;2023-08-20T03:40:32;6.38;;;2.40;;
11614;SDS011;5863;52.832;4.758;2023-08-20T03:42:59;11.02;;;3.22;;
11614;SDS011;5863;52.832;4.758;2023-08-20T03:45:26;8.35;;;3.15;;
11614;SDS011;5863;52.832;4.758;2023-08-20T03:47:56;13.30;;;3.33;;
11614;SDS011;5863;52.832;4.758;2023-08-20T03:50:23;10.38;;;3.20;;
11614;SDS011;5863;52.832;4.758;2023-08-20T03:52:49;12.02;;;3.53;;
11614;SDS011;5863;52.832;4.758;2023-08-20T03:55:16;13.05;;;3.33;;
11614;SDS011;5863;52.832;4.758;2023-08-20T03:57:43;9.70;;;2.75;;
11614;SDS011;5863;52.832;4.758;2023-08-20T04:00:10;8.70;;;2.95;;
11614;SDS011;5863;52.832;4.758;2023-08-20T04:02:37;6.75;;;2.80;;
11614;SDS011;5863;52.832;4.758;2023-08-20T04:05:06;9.10;;;3.20;;
11614;SDS011;5863;52.832;4.758;2023-08-20T04:07:33;9.05;;;2.72;;
11614;SDS011;5863;52.832;4.758;2023-08-20T04:09:59;12.45;;;3.10;;
11614;SDS011;5863;52.832;4.758;2023-08-20T04:12:26;10.10;;;2.90;;
11614;SDS011;5863;52.832;4.758;2023-08-20T04:14:53;8.48;;;3.50;;
11614;SDS011;5863;52.832;4.758;2023-08-20T04:17:20;8.40;;;2.78;;
11614;SDS011;5863;52.832;4.758;2023-08-20T04:19:46;9.40;;;3.25;;
11614;SDS011;5863;52.832;4.758;2023-08-20T04:22:14;10.48;;;3.40;;
11614;SDS011;5863;52.832;4.758;2023-08-20T04:24:41;7.32;;;3.35;;
11614;SDS011;5863;52.832;4.758;2023-08-20T04:27:08;10.02;;;3.03;;
11614;SDS011;5863;52.832;4.758;2023-08-20T04:29:34;7.00;;;3.67;;
11614;SDS011;5863;52.832;4.758;2023-08-20T04:32:03;10.77;;;3.78;;
11614;SDS011;5863;52.832;4.758;2023-08-20T04:34:29;9.80;;;3.40;;
11614;SDS011;5863;52.832;4.758;2023-08-20T04:36:56;9.10;;;3.38;;
11614;SDS011;5863;52.832;4.758;2023-08-20T04:39:24;8.77;;;3.15;;
11614;SDS011;5863;52.832;4.758;2023-08-20T04:41:51;9.20;;;3.30;;
11614;SDS011;5863;52.832;4.758;2023-08-20T04:44:17;9.30;;;3.50;;
11614;SDS011;5863;52.832;4.758;2023-08-20T04:46:44;8.40;;;3.33;;
11614;SDS011;5863;52.832;4.758;2023-08-20T04:49:11;4.95;;;2.65;;
11614;SDS011;5863;52.832;4.758;2023-08-20T04:51:38;9.48;;;3.22;;
11614;SDS011;5863;52.832;4.758;2023-08-20T04:54:05;8.52;;;3.00;;
11614;SDS011;5863;52.832;4.758;2023-08-20T04:56:33;12.18;;;3.53;;
11614;SDS011;5863;52.832;4.758;2023-08-20T04:58:59;9.77;;;3.55;;
11614;SDS011;5863;52.832;4.758;2023-08-20T05:01:26;13.68;;;3.67;;
11614;SDS011;5863;52.832;4.758;2023-08-20T05:03:53;9.93;;;3.58;;
11614;SDS011;5863;52.832;4.758;2023-08-20T05:06:19;15.00;;;3.65;;
11614;SDS011;5863;52.832;4.758;2023-08-20T05:08:46;10.73;;;3.55;;
11614;SDS011;5863;52.832;4.758;2023-08-20T05:11:12;13.05;;;3.10;;
11614;SDS011;5863;52.832;4.758;2023-08-20T05:13:40;8.07;;;3.13;;
11614;SDS011;5863;52.832;4.758;2023-08-20T05:16:07;6.72;;;3.10;;
11614;SDS011;5863;52.832;4.758;2023-08-20T05:18:34;8.82;;;3.38;;
11614;SDS011;5863;52.832;4.758;2023-08-20T05:21:00;11.55;;;3.20;;
11614;SDS011;5863;52.832;4.758;2023-08-20T05:23:27;7.40;;;2.85;;
11614;SDS011;5863;52.832;4.758;2023-08-20T05:25:54;8.60;;;3.03;;
11614;SDS011;5863;52.832;4.758;2023-08-20T05:28:20;9.18;;;3.13;;
11614;SDS011;5863;52.832;4.758;2023-08-20T05:30:54;10.75;;;2.65;;
11614;SDS011;5863;52.832;4.758;2023-08-20T05:33:21;6.20;;;2.47;;
11614;SDS011;5863;52.832;4.758;2023-08-20T05:35:48;6.65;;;2.58;;
11614;SDS011;5863;52.832;4.758;2023-08-20T05:38:15;5.68;;;2.50;;
11614;SDS011;5863;52.832;4.758;2023-08-20T05:40:42;6.50;;;2.40;;
11614;SDS011;5863;52.832;4.758;2023-08-20T05:43:09;8.10;;;2.53;;
11614;SDS011;5863;52.832;4.758;2023-08-20T05:45:35;9.55;;;2.60;;
11614;SDS011;5863;52.832;4.758;2023-08-20T05:48:04;7.25;;;3.25;;
11614;SDS011;5863;52.832;4.758;2023-08-20T05:50:31;7.53;;;2.53;;
11614;SDS011;5863;52.832;4.758;2023-08-20T05:52:58;5.68;;;2.28;;
11614;SDS011;5863;52.832;4.758;2023-08-20T05:55:26;5.45;;;2.30;;
11614;SDS011;5863;52.832;4.758;2023-08-20T05:57:53;8.18;;;2.45;;
11614;SDS011;5863;52.832;4.758;2023-08-20T06:00:19;8.88;;;3.22;;
11614;SDS011;5863;52.832;4.758;2023-08-20T06:02:46;7.45;;;3.05;;
11614;SDS011;5863;52.832;4.758;2023-08-20T06:05:14;5.25;;;2.40;;
11614;SDS011;5863;52.832;4.758;2023-08-20T06:07:41;6.88;;;2.20;;
11614;SDS011;5863;52.832;4.758;2023-08-20T06:10:08;8.27;;;2.35;;
11614;SDS011;5863;52.832;4.758;2023-08-20T06:12:36;10.25;;;2.53;;
11614;SDS011;5863;52.832;4.758;2023-08-20T06:15:04;11.98;;;2.90;;
11614;SDS011;5863;52.832;4.758;2023-08-20T06:17:31;8.82;;;2.55;;
11614;SDS011;5863;52.832;4.758;2023-08-20T06:19:58;7.88;;;2.38;;
11614;SDS011;5863;52.832;4.758;2023-08-20T06:22:26;8.88;;;3.45;;
11614;SDS011;5863;52.832;4.758;2023-08-20T06:24:52;11.10;;;2.20;;
11614;SDS011;5863;52.832;4.758;2023-08-20T06:27:19;11.15;;;2.42;;
11614;SDS011;5863;52.832;4.758;2023-08-20T06:29:46;13.48;;;2.50;;
11614;SDS011;5863;52.832;4.758;2023-08-20T06:32:12;6.88;;;2.00;;
11614;SDS011;5863;52.832;4.758;2023-08-20T06:34:39;10.43;;;2.15;;
11614;SDS011;5863;52.832;4.758;2023-08-20T06:37:06;6.95;;;1.88;;
11614;SDS011;5863;52.832;4.758;2023-08-20T06:39:34;9.68;;;2.08;;
11614;SDS011;5863;52.832;4.758;2023-08-20T06:42:00;8.93;;;2.38;;
11614;SDS011;5863;52.832;4.758;2023-08-20T06:44:27;9.02;;;2.30;;
11614;SDS011;5863;52.832;4.758;2023-08-20T06:46:54;7.68;;;2.30;;
11614;SDS011;5863;52.832;4.758;2023-08-20T06:49:21;9.65;;;2.55;;
11614;SDS011;5863;52.832;4.758;2023-08-20T06:51:47;5.72;;;1.92;;
11614;SDS011;5863;52.832;4.758;2023-08-20T06:54:14;9.98;;;2.47;;
11614;SDS011;5863;52.832;4.758;2023-08-20T06:56:42;7.57;;;2.05;;
11614;SDS011;5863;52.832;4.758;2023-08-20T06:59:09;5.50;;;2.13;;
11614;SDS011;5863;52.832;4.758;2023-08-20T07:01:36;10.32;;;2.38;;
11614;SDS011;5863;52.832;4.758;2023-08-20T07:04:03;5.97;;;1.98;;
11614;SDS011;5863;52.832;4.758;2023-08-20T07:06:30;8.55;;;2.08;;
11614;SDS011;5863;52.832;4.758;2023-08-20T07:08:57;7.47;;;2.13;;
11614;SDS011;5863;52.832;4.758;2023-08-20T07:11:23;9.63;;;2.10;;
11614;SDS011;5863;52.832;4.758;2023-08-20T07:13:51;8.20;;;2.60;;
11614;SDS011;5863;52.832;4.758;2023-08-20T07:16:18;10.18;;;2.60;;
11614;SDS011;5863;52.832;4.758;2023-08-20T07:18:45;6.38;;;2.22;;
11614;SDS011;5863;52.832;4.758;2023-08-20T07:21:11;8.38;;;2.80;;
11614;SDS011;5863;52.832;4.758;2023-08-20T07:23:38;11.70;;;2.70;;
11614;SDS011;5863;52.832;4.758;2023-08-20T07:26:05;6.53;;;1.90;;
11614;SDS011;5863;52.832;4.758;2023-08-20T07:28:33;7.97;;;2.08;;
11614;SDS011;5863;52.832;4.758;2023-08-20T07:31:19;8.20;;;2.30;;
11614;SDS011;5863;52.832;4.758;2023-08-20T07:33:46;8.55;;;2.47;;
11614;SDS011;5863;52.832;4.758;2023-08-20T07:36:13;12.13;;;2.63;;
11614;SDS011;5863;52.832;4.758;2023-08-20T07:38:41;9.93;;;2.55;;
11614;SDS011;5863;52.832;4.758;2023-08-20T07:41:09;10.02;;;2.88;;
11614;SDS011;5863;52.832;4.758;2023-08-20T07:43:37;7.55;;;2.25;;
11614;SDS011;5863;52.832;4.758;2023-08-20T07:46:04;8.65;;;2.22;;
11614;SDS011;5863;52.832;4.758;2023-08-20T07:48:33;7.70;;;2.25;;
11614;SDS011;5863;52.832;4.758;2023-08-20T07:51:00;13.15;;;2.78;;
11614;SDS011;5863;52.832;4.758;2023-08-20T07:53:27;8.48;;;2.35;;
11614;SDS011;5863;52.832;4.758;2023-08-20T07:55:54;6.20;;;2.15;;
11614;SDS011;5863;52.832;4.758;2023-08-20T07:58:21;5.38;;;2.10;;
11614;SDS011;5863;52.832;4.758;2023-08-20T08:00:47;6.63;;;2.15;;
11614;SDS011;5863;52.832;4.758;2023-08-20T08:03:14;6.30;;;2.20;;
11614;SDS011;5863;52.832;4.758;2023-08-20T08:05:43;8.43;;;2.42;;
11614;SDS011;5863;52.832;4.758;2023-08-20T08:08:12;8.65;;;2.35;;
11614;SDS011;5863;52.832;4.758;2023-08-20T08:10:38;11.65;;;2.78;;
11614;SDS011;5863;52.832;4.758;2023-08-20T08:13:05;10.85;;;2.53;;
11614;SDS011;5863;52.832;4.758;2023-08-20T08:15:32;9.70;;;2.30;;
11614;SDS011;5863;52.832;4.758;2023-08-20T08:17:58;8.23;;;2.63;;
11614;SDS011;5863;52.832;4.758;2023-08-20T08:20:25;11.73;;;2.97;;
11614;SDS011;5863;52.832;4.758;2023-08-20T08:22:53;9.75;;;2.50;;
11614;SDS011;5863;52.832;4.758;2023-08-20T08:25:20;7.22;;;2.05;;
11614;SDS011;5863;52.832;4.758;2023-08-20T08:27:46;8.27;;;2.28;;
11614;SDS011;5863;52.832;4.758;2023-08-20T08:30:13;9.90;;;2.50;;
11614;SDS011;5863;52.832;4.758;2023-08-20T08:32:40;8.85;;;2.15;;
11614;SDS011;5863;52.832;4.758;2023-08-20T08:35:07;10.32;;;2.25;;
11614;SDS011;5863;52.832;4.758;2023-08-20T08:37:34;13.05;;;2.22;;
11614;SDS011;5863;52.832;4.758;2023-08-20T08:40:02;7.10;;;2.42;;
11614;SDS011;5863;52.832;4.758;2023-08-20T08:42:30;8.10;;;2.13;;
11614;SDS011;5863;52.832;4.758;2023-08-20T08:44:58;8.27;;;2.50;;
11614;SDS011;5863;52.832;4.758;2023-08-20T08:47:26;7.60;;;2.10;;
11614;SDS011;5863;52.832;4.758;2023-08-20T08:49:53;7.10;;;2.08;;
11614;SDS011;5863;52.832;4.758;2023-08-20T08:52:22;7.75;;;2.15;;
11614;SDS011;5863;52.832;4.758;2023-08-20T08:54:49;9.35;;;2.20;;
11614;SDS011;5863;52.832;4.758;2023-08-20T08:57:17;9.07;;;2.47;;
11614;SDS011;5863;52.832;4.758;2023-08-20T08:59:44;9.40;;;2.63;;
11614;SDS011;5863;52.832;4.758;2023-08-20T09:02:12;8.00;;;2.38;;
11614;SDS011;5863;52.832;4.758;2023-08-20T09:04:39;7.65;;;2.35;;
11614;SDS011;5863;52.832;4.758;2023-08-20T09:07:09;9.05;;;2.78;;
11614;SDS011;5863;52.832;4.758;2023-08-20T09:09:37;9.82;;;2.42;;
11614;SDS011;5863;52.832;4.758;2023-08-20T09:12:12;11.00;;;2.47;;
11614;SDS011;5863;52.832;4.758;2023-08-20T09:14:41;10.30;;;2.88;;
11614;SDS011;5863;52.832;4.758;2023-08-20T09:17:11;7.68;;;2.40;;
11614;SDS011;5863;52.832;4.758;2023-08-20T09:19:38;7.47;;;2.70;;
11614;SDS011;5863;52.832;4.758;2023-08-20T09:22:05;7.22;;;2.50;;
11614;SDS011;5863;52.832;4.758;2023-08-20T09:24:32;8.85;;;2.45;;
11614;SDS011;5863;52.832;4.758;2023-08-20T09:27:02;9.60;;;2.22;;
11614;SDS011;5863;52.832;4.758;2023-08-20T09:29:31;9.85;;;2.60;;
11614;SDS011;5863;52.832;4.758;2023-08-20T09:32:01;9.02;;;2.35;;
11614;SDS011;5863;52.832;4.758;2023-08-20T09:34:35;9.43;;;2.65;;
11614;SDS011;5863;52.832;4.758;2023-08-20T09:37:03;8.57;;;2.22;;
11614;SDS011;5863;52.832;4.758;2023-08-20T09:39:33;8.30;;;2.28;;
11614;SDS011;5863;52.832;4.758;2023-08-20T09:42:00;8.77;;;2.55;;
11614;SDS011;5863;52.832;4.758;2023-08-20T09:44:28;8.90;;;2.53;;
11614;SDS011;5863;52.832;4.758;2023-08-20T09:47:00;9.88;;;2.60;;
11614;SDS011;5863;52.832;4.758;2023-08-20T09:49:29;9.40;;;2.72;;
11614;SDS011;5863;52.832;4.758;2023-08-20T09:51:59;7.55;;;2.45;;
11614;SDS011;5863;52.832;4.758;2023-08-20T09:54:32;8.13;;;2.30;;
11614;SDS011;5863;52.832;4.758;2023-08-20T09:57:05;6.30;;;2.13;;
11614;SDS011;5863;52.832;4.758;2023-08-20T09:59:36;8.98;;;2.45;;
11614;SDS011;5863;52.832;4.758;2023-08-20T10:02:06;10.65;;;2.67;;
11614;SDS011;5863;52.832;4.758;2023-08-20T10:04:38;6.95;;;2.88;;
11614;SDS011;5863;52.832;4.758;2023-08-20T10:07:05;7.00;;;2.25;;
11614;SDS011;5863;52.832;4.758;2023-08-20T10:09:32;8.18;;;2.35;;
11614;SDS011;5863;52.832;4.758;2023-08-20T10:12:00;7.85;;;2.63;;
11614;SDS011;5863;52.832;4.758;2023-08-20T10:14:27;7.35;;;2.67;;
11614;SDS011;5863;52.832;4.758;2023-08-20T10:16:54;7.25;;;2.00;;
11614;SDS011;5863;52.832;4.758;2023-08-20T10:19:22;10.85;;;2.63;;
11614;SDS011;5863;52.832;4.758;2023-08-20T10:21:51;8.90;;;2.40;;
11614;SDS011;5863;52.832;4.758;2023-08-20T10:24:18;8.80;;;1.98;;
11614;SDS011;5863;52.832;4.758;2023-08-20T10:26:45;7.38;;;2.00;;
11614;SDS011;5863;52.832;4.758;2023-08-20T10:32:01;10.25;;;2.45;;
11614;SDS011;5863;52.832;4.758;2023-08-20T10:34:33;9.60;;;2.60;;
11614;SDS011;5863;52.832;4.758;2023-08-20T10:37:02;8.80;;;2.45;;
11614;SDS011;5863;52.832;4.758;2023-08-20T10:39:34;8.75;;;2.30;;
11614;SDS011;5863;52.832;4.758;2023-08-20T10:42:21;6.70;;;2.05;;
11614;SDS011;5863;52.832;4.758;2023-08-20T10:44:56;8.88;;;2.60;;
11614;SDS011;5863;52.832;4.758;2023-08-20T10:47:24;11.32;;;2.50;;
11614;SDS011;5863;52.832;4.758;2023-08-20T10:49:53;7.97;;;2.25;;
11614;SDS011;5863;52.832;4.758;2023-08-20T10:52:20;6.75;;;2.60;;
11614;SDS011;5863;52.832;4.758;2023-08-20T10:54:49;8.88;;;2.42;;
11614;SDS011;5863;52.832;4.758;2023-08-20T10:57:17;10.73;;;2.33;;
11614;SDS011;5863;52.832;4.758;2023-08-20T10:59:47;9.85;;;2.40;;
11614;SDS011;5863;52.832;4.758;2023-08-20T11:02:24;9.93;;;2.25;;
11614;SDS011;5863;52.832;4.758;2023-08-20T11:04:52;7.78;;;2.50;;
11614;SDS011;5863;52.832;4.758;2023-08-20T11:07:19;9.27;;;2.40;;
11614;SDS011;5863;52.832;4.758;2023-08-20T11:09:47;8.27;;;2.65;;
11614;SDS011;5863;52.832;4.758;2023-08-20T11:12:14;12.10;;;2.10;;
11614;SDS011;5863;52.832;4.758;2023-08-20T11:14:41;9.45;;;2.55;;
11614;SDS011;5863;52.832;4.758;2023-08-20T11:17:08;9.90;;;2.83;;
11614;SDS011;5863;52.832;4.758;2023-08-20T11:19:35;9.20;;;3.00;;
11614;SDS011;5863;52.832;4.758;2023-08-20T11:22:03;8.10;;;2.40;;
11614;SDS011;5863;52.832;4.758;2023-08-20T11:24:30;6.60;;;2.00;;
11614;SDS011;5863;52.832;4.758;2023-08-20T11:26:57;6.20;;;2.10;;
11614;SDS011;5863;52.832;4.758;2023-08-20T11:29:25;7.32;;;2.25;;
11614;SDS011;5863;52.832;4.758;2023-08-20T11:31:52;9.70;;;2.10;;
11614;SDS011;5863;52.832;4.758;2023-08-20T11:34:20;10.25;;;2.45;;
11614;SDS011;5863;52.832;4.758;2023-08-20T11:36:47;8.70;;;2.20;;
11614;SDS011;5863;52.832;4.758;2023-08-20T11:39:15;7.90;;;2.20;;
11614;SDS011;5863;52.832;4.758;2023-08-20T11:41:43;7.72;;;2.72;;
11614;SDS011;5863;52.832;4.758;2023-08-20T11:44:10;6.75;;;2.10;;
11614;SDS011;5863;52.832;4.758;2023-08-20T11:46:44;8.15;;;2.08;;
11614;SDS011;5863;52.832;4.758;2023-08-20T11:49:11;4.57;;;1.98;;
11614;SDS011;5863;52.832;4.758;2023-08-20T11:51:39;8.15;;;2.25;;
11614;SDS011;5863;52.832;4.758;2023-08-20T11:54:07;5.47;;;1.95;;
11614;SDS011;5863;52.832;4.758;2023-08-20T11:56:35;7.25;;;2.30;;
11614;SDS011;5863;52.832;4.758;2023-08-20T11:59:10;6.60;;;2.05;;
11614;SDS011;5863;52.832;4.758;2023-08-20T12:01:37;10.43;;;2.60;;
11614;SDS011;5863;52.832;4.758;2023-08-20T12:04:06;8.93;;;2.40;;
11614;SDS011;5863;52.832;4.758;2023-08-20T12:06:34;9.15;;;1.95;;
11614;SDS011;5863;52.832;4.758;2023-08-20T12:09:03;3.85;;;1.80;;
11614;SDS011;5863;52.832;4.758;2023-08-20T12:11:49;8.40;;;2.17;;
11614;SDS011;5863;52.832;4.758;2023-08-20T12:14:16;5.60;;;2.10;;
11614;SDS011;5863;52.832;4.758;2023-08-20T12:16:43;7.32;;;2.55;;
11614;SDS011;5863;52.832;4.758;2023-08-20T12:19:10;6.28;;;2.10;;
11614;SDS011;5863;52.832;4.758;2023-08-20T12:21:37;8.75;;;2.22;;
11614;SDS011;5863;52.832;4.758;2023-08-20T12:24:04;8.48;;;2.20;;
11614;SDS011;5863;52.832;4.758;2023-08-20T12:26:31;9.70;;;2.28;;
11614;SDS011;5863;52.832;4.758;2023-08-20T12:28:59;7.38;;;2.17;;
11614;SDS011;5863;52.832;4.758;2023-08-20T12:31:26;5.47;;;2.00;;
11614;SDS011;5863;52.832;4.758;2023-08-20T12:33:52;10.57;;;2.35;;
11614;SDS011;5863;52.832;4.758;2023-08-20T12:36:19;10.50;;;2.20;;
11614;SDS011;5863;52.832;4.758;2023-08-20T12:38:46;8.82;;;2.13;;
11614;SDS011;5863;52.832;4.758;2023-08-20T12:41:13;5.00;;;1.80;;
11614;SDS011;5863;52.832;4.758;2023-08-20T12:43:40;7.80;;;1.90;;
11614;SDS011;5863;52.832;4.758;2023-08-20T12:46:08;5.20;;;1.92;;
11614;SDS011;5863;52.832;4.758;2023-08-20T12:48:35;10.55;;;1.95;;
11614;SDS011;5863;52.832;4.758;2023-08-20T12:51:02;6.63;;;1.90;;
11614;SDS011;5863;52.832;4.758;2023-08-20T12:53:29;8.60;;;2.10;;
11614;SDS011;5863;52.832;4.758;2023-08-20T12:55:55;6.00;;;2.25;;
11614;SDS011;5863;52.832;4.758;2023-08-20T12:58:22;9.90;;;2.53;;
11614;SDS011;5863;52.832;4.758;2023-08-20T13:00:49;9.57;;;2.55;;
11614;SDS011;5863;52.832;4.758;2023-08-20T13:03:18;10.70;;;1.92;;
11614;SDS011;5863;52.832;4.758;2023-08-20T13:05:45;10.48;;;2.15;;
11614;SDS011;5863;52.832;4.758;2023-08-20T13:08:12;9.27;;;2.55;;
11614;SDS011;5863;52.832;4.758;2023-08-20T13:10:40;6.70;;;1.90;;
11614;SDS011;5863;52.832;4.758;2023-08-20T13:13:08;5.30;;;1.90;;
11614;SDS011;5863;52.832;4.758;2023-08-20T13:15:36;8.90;;;1.88;;
11614;SDS011;5863;52.832;4.758;2023-08-20T13:18:04;6.78;;;2.05;;
11614;SDS011;5863;52.832;4.758;2023-08-20T13:20:34;5.97;;;1.77;;
11614;SDS011;5863;52.832;4.758;2023-08-20T13:23:00;8.40;;;1.80;;
11614;SDS011;5863;52.832;4.758;2023-08-20T13:25:27;5.60;;;1.95;;
11614;SDS011;5863;52.832;4.758;2023-08-20T13:27:54;5.70;;;1.90;;
11614;SDS011;5863;52.832;4.758;2023-08-20T13:30:20;7.22;;;2.03;;
11614;SDS011;5863;52.832;4.758;2023-08-20T13:32:47;10.40;;;2.30;;
11614;SDS011;5863;52.832;4.758;2023-08-20T13:35:15;5.65;;;1.83;;
11614;SDS011;5863;52.832;4.758;2023-08-20T13:37:43;5.63;;;1.83;;
11614;SDS011;5863;52.832;4.758;2023-08-20T13:40:10;6.03;;;1.73;;
11614;SDS011;5863;52.832;4.758;2023-08-20T13:42:37;5.72;;;1.80;;
11614;SDS011;5863;52.832;4.758;2023-08-20T13:45:04;8.25;;;2.00;;
11614;SDS011;5863;52.832;4.758;2023-08-20T13:47:32;4.60;;;1.88;;
11614;SDS011;5863;52.832;4.758;2023-08-20T13:49:59;6.78;;;1.83;;
11614;SDS011;5863;52.832;4.758;2023-08-20T13:52:25;5.00;;;1.60;;
11614;SDS011;5863;52.832;4.758;2023-08-20T13:54:53;7.78;;;2.00;;
11614;SDS011;5863;52.832;4.758;2023-08-20T13:57:20;5.22;;;1.63;;
11614;SDS011;5863;52.832;4.758;2023-08-20T13:59:47;7.05;;;1.80;;
11614;SDS011;5863;52.832;4.758;2023-08-20T14:02:14;7.97;;;2.20;;
11614;SDS011;5863;52.832;4.758;2023-08-20T14:04:40;8.18;;;2.47;;
11614;SDS011;5863;52.832;4.758;2023-08-20T14:07:07;8.43;;;1.83;;
11614;SDS011;5863;52.832;4.758;2023-08-20T14:09:34;7.80;;;2.17;;
11614;SDS011;5863;52.832;4.758;2023-08-20T14:12:02;6.00;;;1.73;;
11614;SDS011;5863;52.832;4.758;2023-08-20T14:14:29;6.50;;;1.90;;
11614;SDS011;5863;52.832;4.758;2023-08-20T14:16:56;4.07;;;1.70;;
11614;SDS011;5863;52.832;4.758;2023-08-20T14:19:23;5.72;;;1.40;;
11614;SDS011;5863;52.832;4.758;2023-08-20T14:21:49;6.10;;;1.67;;
11614;SDS011;5863;52.832;4.758;2023-08-20T14:24:16;6.90;;;1.75;;
11614;SDS011;5863;52.832;4.758;2023-08-20T14:26:43;3.85;;;1.60;;
11614;SDS011;5863;52.832;4.758;2023-08-20T14:29:11;6.45;;;2.25;;
11614;SDS011;5863;52.832;4.758;2023-08-20T14:31:38;6.97;;;1.60;;
11614;SDS011;5863;52.832;4.758;2023-08-20T14:34:04;8.07;;;1.58;;
11614;SDS011;5863;52.832;4.758;2023-08-20T14:36:31;7.63;;;1.90;;
11614;SDS011;5863;52.832;4.758;2023-08-20T14:38:58;7.40;;;1.70;;
11614;SDS011;5863;52.832;4.758;2023-08-20T14:41:25;6.18;;;1.40;;
11614;SDS011;5863;52.832;4.758;2023-08-20T14:43:51;8.55;;;2.15;;
11614;SDS011;5863;52.832;4.758;2023-08-20T14:46:19;3.90;;;1.50;;
11614;SDS011;5863;52.832;4.758;2023-08-20T14:48:46;5.30;;;1.70;;
11614;SDS011;5863;52.832;4.758;2023-08-20T14:51:13;4.70;;;1.65;;
11614;SDS011;5863;52.832;4.758;2023-08-20T14:53:39;5.65;;;1.33;;
11614;SDS011;5863;52.832;4.758;2023-08-20T14:56:06;6.25;;;1.70;;
11614;SDS011;5863;52.832;4.758;2023-08-20T14:58:33;5.90;;;1.48;;
11614;SDS011;5863;52.832;4.758;2023-08-20T15:00:59;3.97;;;1.48;;
11614;SDS011;5863;52.832;4.758;2023-08-20T15:03:27;5.10;;;1.98;;
11614;SDS011;5863;52.832;4.758;2023-08-20T15:05:55;4.72;;;1.80;;